This is the latest recevied weather packets stored in our database for station/object KD7CTY. If no packets are shown the sender has not sent any weather packets the latest 10 day(s).
| Time | Temp. | Humidity | Pressure | Rain* | Wind** | Luminosity | Snow |
|---|---|---|---|---|---|---|---|
| 1777924479 | 21.67° C | 66% | 1010.2 hPa | 0 mm | - | 776 W/m² | - |
| 1777924176 | 21.67° C | 66% | 1010.3 hPa | 0 mm | - | 794 W/m² | - |
| 1777923872 | 21.67° C | 66% | 1010.1 hPa | 0 mm | - | 743 W/m² | - |
| 1777923568 | 21.67° C | 66% | 1010.4 hPa | 0 mm | - | 833 W/m² | - |
| 1777923266 | 21.11° C | 67% | 1010.1 hPa | 0 mm | - | 843 W/m² | - |
| 1777922965 | 21.11° C | 66% | 1010.3 hPa | 0 mm | - | 726 W/m² | - |
| 1777922661 | 21.11° C | 65% | 1010.2 hPa | 0 mm | - | 818 W/m² | - |
| 1777922360 | 22.22° C | 65% | 1010.2 hPa | 0 mm | - | 790 W/m² | - |
| 1777922058 | 21.67° C | 66% | 1010.3 hPa | 0 mm | - | 832 W/m² | - |
| 1777921753 | 21.11° C | 67% | 1010 hPa | 0 mm | - | 781 W/m² | - |
| 1777921449 | 21.11° C | 64% | 1010.1 hPa | 0 mm | - | 789 W/m² | - |
| 1777921146 | 21.11° C | 62% | 1010.2 hPa | 0 mm | - | 804 W/m² | - |
| 1777920843 | 21.11° C | 66% | 1010.3 hPa | 0 mm | - | 823 W/m² | - |
| 1777920539 | 21.67° C | 63% | 1010.3 hPa | 0 mm | - | 859 W/m² | - |
| 1777920235 | 21.67° C | 62% | 1010.3 hPa | 0 mm | - | 850 W/m² | - |
| 1777919931 | 20.56° C | 66% | 1010.4 hPa | 0 mm | - | 842 W/m² | - |
| 1777919629 | 21.67° C | 60% | 1010.3 hPa | 0 mm | - | 798 W/m² | - |
| 1777919326 | 21.11° C | 64% | 1010.4 hPa | 0 mm | - | 827 W/m² | - |
| 1777919023 | 21.11° C | 62% | 1010.4 hPa | 0 mm | - | 832 W/m² | - |
| 1777918720 | 20.56° C | 63% | 1010.4 hPa | 0 mm | - | 809 W/m² | - |
| 1777918417 | 20.56° C | 64% | 1010.5 hPa | 0 mm | - | 800 W/m² | - |
| 1777918116 | 21.11° C | 62% | 1010.5 hPa | 0 mm | - | 817 W/m² | - |
| 1777917814 | 20.56° C | 64% | 1010.4 hPa | 0 mm | - | 836 W/m² | - |
| 1777917512 | 20° C | 65% | 1010.6 hPa | 0 mm | - | 822 W/m² | - |
| 1777917208 | 20° C | 63% | 1010.4 hPa | 0 mm | - | 809 W/m² | - |
* Rain latest hour (hover to see other rain measurements)
** Current wind speed in m/s (hover to see current wind gust speed)